Time;durP1;ratioP1;P1;durP2;ratioP2;P2;SDS_P1;SDS_P2;PMS_P1;PMS_P2;Temp;Humidity;BMP_temperature;BMP_pressure;BME280_temperature;BME280_humidity;BME280_pressure;Samples;Min_cycle;Max_cycle;Signal;HPM_P1;HPM_P2
2023/11/16 00:01:28;;;;;;;8.07;2.03;;;8.20;99.90;;;;;;4116550;28;20186;-90
2023/11/16 00:03:29;;;;;;;8.43;1.90;;;8.30;99.90;;;;;;4100600;29;20271;-90
2023/11/16 00:05:35;;;;;;;7.93;1.85;;;8.30;99.90;;;;;;4100599;29;20175;-90
2023/11/16 00:07:35;;;;;;;10.65;1.63;;;8.30;99.90;;;;;;4100538;29;20178;-90
2023/11/16 00:09:36;;;;;;;8.68;1.70;;;8.40;99.90;;;;;;4100630;29;20559;-90
2023/11/16 00:11:40;;;;;;;8.65;1.80;;;8.40;99.90;;;;;;4100737;28;20219;-89
2023/11/16 00:13:41;;;;;;;6.47;1.40;;;8.40;99.90;;;;;;4100552;29;20189;-90
2023/11/16 00:15:42;;;;;;;5.25;1.30;;;8.30;99.90;;;;;;4116346;28;20667;-90
2023/11/16 00:17:42;;;;;;;1.92;0.95;;;8.30;99.90;;;;;;4100382;29;20183;-89
2023/11/16 00:19:43;;;;;;;6.60;0.60;;;8.30;99.90;;;;;;4100674;29;20187;-90
2023/11/16 00:21:46;;;;;;;2.50;0.82;;;8.40;99.90;;;;;;4100536;29;20183;-90
2023/11/16 00:23:48;;;;;;;3.45;1.25;;;8.40;99.90;;;;;;4100607;29;20277;-90
2023/11/16 00:25:49;;;;;;;5.28;1.48;;;8.50;99.90;;;;;;4100386;29;20230;-90
2023/11/16 00:27:50;;;;;;;8.60;1.35;;;8.60;99.90;;;;;;4100301;29;20663;-90
2023/11/16 00:29:53;;;;;;;4.80;1.15;;;8.70;99.90;;;;;;4100248;28;20196;-90
2023/11/16 00:31:54;;;;;;;3.85;1.40;;;8.60;99.90;;;;;;4116182;28;20222;-89
2023/11/16 00:33:55;;;;;;;7.38;1.02;;;8.50;99.90;;;;;;4100273;29;20183;-91
2023/11/16 00:35:58;;;;;;;4.82;1.40;;;8.60;99.90;;;;;;4100352;28;20214;-90
2023/11/16 00:37:59;;;;;;;1.70;0.88;;;8.60;99.90;;;;;;4099913;29;20210;-89
2023/11/16 00:40:00;;;;;;;5.82;1.30;;;8.50;99.90;;;;;;4100181;29;20195;-90
2023/11/16 00:42:01;;;;;;;4.18;0.88;;;8.60;99.90;;;;;;4100135;29;20190;-90
2023/11/16 00:44:02;;;;;;;6.53;1.67;;;8.60;99.90;;;;;;4115988;28;20182;-90
2023/11/16 00:46:04;;;;;;;8.38;1.30;;;8.70;99.90;;;;;;4100019;29;20183;-90
2023/11/16 00:48:05;;;;;;;1.88;0.77;;;8.70;99.90;;;;;;4099869;29;20218;-90
2023/11/16 00:50:07;;;;;;;3.35;1.60;;;8.70;99.90;;;;;;4100408;29;20190;-90
2023/11/16 00:52:08;;;;;;;5.60;0.95;;;8.70;99.90;;;;;;4100293;29;20214;-90
2023/11/16 00:54:11;;;;;;;6.97;1.98;;;8.50;99.90;;;;;;4116087;28;20178;-90
2023/11/16 00:56:13;;;;;;;7.90;1.10;;;8.50;99.90;;;;;;4116111;28;20179;-91
2023/11/16 00:58:15;;;;;;;2.95;0.95;;;8.40;99.90;;;;;;4099842;29;20254;-89
2023/11/16 01:00:16;;;;;;;4.63;1.85;;;8.30;99.90;;;;;;4100445;29;20194;-90
2023/11/16 01:02:17;;;;;;;3.72;0.90;;;8.20;99.90;;;;;;4116167;28;20178;-90
2023/11/16 01:04:19;;;;;;;3.05;0.57;;;8.20;99.90;;;;;;4100119;29;20186;-90
2023/11/16 01:06:20;;;;;;;7.95;1.20;;;8.20;99.90;;;;;;4116237;28;20214;-90
2023/11/16 01:08:21;;;;;;;10.00;1.23;;;8.20;99.90;;;;;;4099857;29;20195;-90
2023/11/16 01:10:24;;;;;;;2.13;0.80;;;8.30;99.90;;;;;;4100186;29;20183;-90
2023/11/16 01:12:25;;;;;;;5.32;1.30;;;8.20;99.90;;;;;;4100099;28;20193;-90
2023/11/16 01:14:25;;;;;;;4.82;1.15;;;8.20;99.90;;;;;;4116160;28;20547;-90
2023/11/16 01:16:30;;;;;;;7.68;2.47;;;8.20;99.90;;;;;;4099907;29;20190;-90
2023/11/16 01:18:32;;;;;;;5.63;1.35;;;8.20;99.90;;;;;;4100036;29;20202;-91
2023/11/16 01:20:35;;;;;;;6.78;1.58;;;8.30;99.90;;;;;;4099927;29;20278;-90
2023/11/16 01:22:40;;;;;;;7.00;1.35;;;8.20;99.90;;;;;;4099960;29;20186;-90
2023/11/16 01:24:44;;;;;;;9.90;2.28;;;8.00;99.90;;;;;;4099833;29;20179;-90
2023/11/16 01:26:46;;;;;;;7.25;1.73;;;8.00;99.90;;;;;;4100028;28;20186;-90
2023/11/16 01:28:50;;;;;;;8.40;1.60;;;8.00;99.90;;;;;;4099789;29;20270;-91
2023/11/16 01:30:50;;;;;;;2.95;0.93;;;8.10;99.90;;;;;;4099756;29;20219;-90
2023/11/16 01:32:52;;;;;;;1.00;0.57;;;8.20;99.90;;;;;;4116289;28;20182;-90
2023/11/16 01:34:53;;;;;;;2.97;0.65;;;8.00;99.90;;;;;;4099859;29;20187;-90
2023/11/16 01:36:54;;;;;;;5.82;1.05;;;7.80;99.90;;;;;;4099426;29;20250;-89
2023/11/16 01:38:54;;;;;;;12.80;1.52;;;7.80;99.90;;;;;;4099614;29;20720;-90
2023/11/16 01:40:55;;;;;;;4.35;1.23;;;7.70;99.90;;;;;;4099512;28;20191;-89
2023/11/16 01:42:57;;;;;;;10.75;1.45;;;7.70;99.90;;;;;;4099454;29;20222;-89
2023/11/16 01:44:58;;;;;;;8.75;1.17;;;7.70;99.90;;;;;;4099875;29;20181;-90
2023/11/16 01:46:59;;;;;;;9.60;1.13;;;7.60;99.90;;;;;;4115672;28;20190;-90
2023/11/16 01:49:01;;;;;;;5.90;1.10;;;7.70;99.90;;;;;;4099773;29;20206;-89
2023/11/16 01:51:04;;;;;;;3.92;1.05;;;7.90;99.90;;;;;;4099619;28;20842;-90
2023/11/16 01:53:13;;;;;;;3.35;0.93;;;7.90;99.90;;;;;;4099716;29;20179;-90
2023/11/16 01:55:14;;;;;;;5.07;2.13;;;8.00;99.90;;;;;;4099669;29;20190;-89
2023/11/16 01:57:15;;;;;;;4.90;1.48;;;8.10;99.90;;;;;;4099633;29;20244;-91
2023/11/16 01:59:15;;;;;;;4.28;1.55;;;8.10;99.90;;;;;;4099422;29;20253;-90
2023/11/16 02:01:17;;;;;;;6.05;0.80;;;8.10;99.90;;;;;;4115614;28;20614;-89
2023/11/16 02:03:17;;;;;;;2.90;1.08;;;8.20;99.90;;;;;;4099665;29;20187;-90
2023/11/16 02:05:19;;;;;;;4.38;1.02;;;8.20;99.90;;;;;;4099446;29;20749;-90
2023/11/16 02:07:19;;;;;;;1.98;0.40;;;8.20;99.90;;;;;;4115431;28;20182;-89
2023/11/16 02:09:21;;;;;;;2.30;0.75;;;8.20;99.90;;;;;;4099559;29;20246;-90
2023/11/16 02:11:22;;;;;;;9.50;1.20;;;8.20;99.90;;;;;;4099612;29;20223;-90
2023/11/16 02:13:25;;;;;;;2.30;0.80;;;8.30;99.90;;;;;;4099658;28;20175;-90
2023/11/16 02:15:27;;;;;;;6.22;1.85;;;8.30;99.90;;;;;;4102434;29;20191;-90
2023/11/16 02:17:30;;;;;;;2.47;0.80;;;8.40;99.90;;;;;;4102280;29;20185;-89
2023/11/16 02:19:31;;;;;;;1.38;0.85;;;8.30;99.90;;;;;;4102135;29;20760;-90
2023/11/16 02:21:40;;;;;;;4.50;1.30;;;8.20;99.90;;;;;;4102399;29;20186;-90
2023/11/16 02:23:43;;;;;;;6.75;1.00;;;8.10;99.90;;;;;;4102401;29;20182;-90
2023/11/16 02:25:51;;;;;;;5.47;0.77;;;8.10;99.90;;;;;;4102595;29;20567;-90
2023/11/16 02:27:53;;;;;;;1.15;0.52;;;8.10;99.90;;;;;;4102402;29;20186;-90
2023/11/16 02:29:54;;;;;;;5.90;1.63;;;8.20;99.90;;;;;;4102069;29;20215;-90
2023/11/16 02:31:55;;;;;;;2.40;0.95;;;8.30;99.90;;;;;;4118084;28;20217;-90
2023/11/16 02:33:56;;;;;;;28.33;1.45;;;8.30;99.90;;;;;;4102248;29;20651;-90
2023/11/16 02:35:57;;;;;;;3.50;1.25;;;8.40;99.90;;;;;;4102327;28;20194;-91
2023/11/16 02:37:58;;;;;;;0.68;0.43;;;8.30;99.90;;;;;;4102286;28;20688;-90
2023/11/16 02:39:59;;;;;;;2.50;0.75;;;8.30;99.90;;;;;;4102186;29;20234;-90
2023/11/16 02:42:00;;;;;;;2.30;0.77;;;8.20;99.90;;;;;;4101815;29;20171;-90
2023/11/16 02:44:00;;;;;;;2.22;0.63;;;8.20;99.90;;;;;;4102031;28;20218;-90
2023/11/16 02:46:03;;;;;;;12.43;1.85;;;8.30;99.90;;;;;;4102010;28;20175;-90
2023/11/16 02:48:05;;;;;;;3.03;0.57;;;8.30;99.90;;;;;;4101864;29;20203;-90
2023/11/16 02:50:06;;;;;;;4.78;1.40;;;8.40;99.90;;;;;;4102041;29;20194;-90
2023/11/16 02:52:07;;;;;;;4.32;1.08;;;8.40;99.90;;;;;;4101640;28;20726;-90
2023/11/16 02:54:08;;;;;;;3.15;0.95;;;8.50;99.90;;;;;;4117802;28;20182;-90
2023/11/16 02:56:11;;;;;;;4.28;0.85;;;8.50;99.90;;;;;;4101932;29;20230;-90
2023/11/16 02:58:11;;;;;;;3.33;1.10;;;8.50;99.90;;;;;;4101792;28;20228;-91
2023/11/16 03:00:13;;;;;;;3.47;1.20;;;8.60;99.90;;;;;;4117800;28;20267;-90
2023/11/16 03:02:17;;;;;;;6.18;2.08;;;8.50;99.90;;;;;;4101781;29;20187;-90
2023/11/16 03:04:18;;;;;;;3.85;1.05;;;8.50;99.90;;;;;;4101385;29;20776;-91
2023/11/16 03:06:19;;;;;;;5.18;0.98;;;8.50;99.90;;;;;;4117466;28;20233;-89
2023/11/16 03:08:19;;;;;;;1.30;0.70;;;8.40;99.90;;;;;;4117354;28;20675;-90
2023/11/16 03:10:21;;;;;;;2.88;0.80;;;8.50;99.90;;;;;;4101458;29;20179;-91
2023/11/16 03:12:23;;;;;;;5.03;0.73;;;8.50;99.90;;;;;;4101798;28;20230;-90
2023/11/16 03:14:24;;;;;;;4.78;1.45;;;8.50;99.90;;;;;;4117550;28;20170;-89
2023/11/16 03:16:25;;;;;;;3.58;0.63;;;8.50;99.90;;;;;;4101476;29;20273;-91
2023/11/16 03:18:26;;;;;;;2.95;0.85;;;8.30;99.90;;;;;;4117809;28;20274;-91
2023/11/16 03:20:27;;;;;;;2.25;0.57;;;8.40;99.90;;;;;;4101423;28;20183;-90
2023/11/16 03:22:29;;;;;;;6.53;1.48;;;8.40;99.90;;;;;;4101540;28;20266;-90
2023/11/16 03:24:30;;;;;;;3.35;0.80;;;8.40;99.90;;;;;;4101227;28;20254;-90
2023/11/16 03:26:31;;;;;;;2.42;0.68;;;8.20;99.90;;;;;;4100256;29;20663;-89
2023/11/16 03:28:32;;;;;;;2.40;0.47;;;8.10;99.90;;;;;;4100856;29;20207;-90
2023/11/16 03:30:33;;;;;;;6.13;0.95;;;8.10;99.90;;;;;;4101384;29;20262;-90
2023/11/16 03:32:33;;;;;;;7.95;1.83;;;8.00;99.90;;;;;;4101390;29;20254;-90
2023/11/16 03:34:34;;;;;;;1.85;1.02;;;8.00;99.90;;;;;;4101289;29;20668;-90
2023/11/16 03:36:35;;;;;;;1.55;0.85;;;7.90;99.90;;;;;;4117122;28;20586;-89
2023/11/16 03:38:36;;;;;;;10.45;1.85;;;7.80;99.90;;;;;;4101199;29;20195;-90
2023/11/16 03:40:37;;;;;;;2.85;0.55;;;7.70;99.90;;;;;;4101066;29;20209;-90
2023/11/16 03:42:38;;;;;;;7.35;0.75;;;7.70;99.90;;;;;;4101267;29;20179;-90
2023/11/16 03:44:38;;;;;;;11.57;1.45;;;7.60;99.90;;;;;;4100999;29;20529;-90
2023/11/16 03:46:40;;;;;;;9.03;1.63;;;7.70;99.90;;;;;;4117001;28;20178;-90
2023/11/16 03:48:41;;;;;;;2.42;0.90;;;7.60;99.90;;;;;;4101081;29;20211;-90
2023/11/16 03:50:42;;;;;;;3.90;0.90;;;7.50;99.90;;;;;;4117163;28;20241;-90
2023/11/16 03:52:44;;;;;;;4.50;0.85;;;7.50;99.90;;;;;;4101126;29;20679;-91
2023/11/16 03:54:45;;;;;;;7.32;0.73;;;7.60;99.90;;;;;;4101199;29;20548;-90
2023/11/16 03:56:49;;;;;;;10.07;1.20;;;7.70;99.90;;;;;;4100977;29;20274;-91
2023/11/16 03:58:50;;;;;;;6.35;0.40;;;7.70;99.90;;;;;;4116899;28;20288;-91
2023/11/16 04:00:51;;;;;;;7.40;1.17;;;7.70;99.90;;;;;;4116985;28;20178;-89
2023/11/16 04:02:54;;;;;;;4.60;1.20;;;7.70;99.90;;;;;;4100775;29;20275;-90
2023/11/16 04:04:56;;;;;;;5.65;0.98;;;7.60;99.90;;;;;;4100941;28;20194;-90
2023/11/16 04:06:58;;;;;;;1.95;0.80;;;7.60;99.90;;;;;;4100719;28;20186;-90
2023/11/16 04:08:58;;;;;;;3.88;1.02;;;7.60;99.90;;;;;;4100582;28;20258;-90
2023/11/16 04:11:03;;;;;;;3.38;1.33;;;7.60;99.90;;;;;;4100479;28;20210;-89
2023/11/16 04:13:05;;;;;;;3.50;0.77;;;7.70;99.90;;;;;;4100493;29;20194;-90
2023/11/16 04:15:08;;;;;;;1.83;1.00;;;7.70;99.90;;;;;;4100676;29;20711;-90
2023/11/16 04:17:13;;;;;;;9.48;1.13;;;7.70;99.90;;;;;;4100613;28;20187;-90
2023/11/16 04:19:14;;;;;;;4.18;0.90;;;7.70;99.90;;;;;;4100593;28;20246;-90
2023/11/16 04:21:21;;;;;;;4.43;0.77;;;7.60;99.90;;;;;;4100664;29;20190;-90
2023/11/16 04:23:21;;;;;;;4.00;1.08;;;7.60;99.90;;;;;;4100507;29;20690;-90
2023/11/16 04:25:25;;;;;;;1.17;0.85;;;7.40;99.90;;;;;;4116605;28;20210;-89
2023/11/16 04:27:26;;;;;;;11.75;1.08;;;7.30;99.90;;;;;;4100383;29;20178;-90
2023/11/16 04:29:32;;;;;;;4.57;0.75;;;7.20;99.90;;;;;;4100304;29;20555;-90
2023/11/16 04:31:34;;;;;;;8.90;1.23;;;7.20;99.90;;;;;;4100111;29;20232;-90
2023/11/16 04:33:37;;;;;;;1.30;0.85;;;7.10;99.90;;;;;;4100301;29;20241;-90
2023/11/16 04:35:38;;;;;;;1.67;0.50;;;7.10;99.90;;;;;;4100506;29;20330;-90
2023/11/16 04:37:39;;;;;;;2.80;0.57;;;7.10;99.90;;;;;;4115790;28;20615;-89
2023/11/16 04:39:39;;;;;;;1.20;0.77;;;7.10;99.90;;;;;;4100954;29;20583;-90
2023/11/16 04:41:45;;;;;;;12.68;1.20;;;7.10;99.90;;;;;;4100364;29;20225;-89
2023/11/16 04:43:45;;;;;;;7.10;1.20;;;7.10;99.90;;;;;;4100383;28;20195;-89
2023/11/16 04:45:49;;;;;;;8.37;1.03;;;7.10;99.90;;;;;;4100292;28;20225;-90
2023/11/16 04:47:50;;;;;;;1.00;0.60;;;7.10;99.90;;;;;;4100218;28;20221;-90
2023/11/16 04:49:52;;;;;;;2.92;0.77;;;7.10;99.90;;;;;;4100260;29;20179;-90
2023/11/16 04:51:53;;;;;;;3.40;0.67;;;7.10;99.90;;;;;;4099981;28;20223;-90
2023/11/16 04:53:54;;;;;;;8.07;0.80;;;7.10;99.90;;;;;;4100124;29;20191;-90
2023/11/16 04:55:57;;;;;;;1.10;0.50;;;7.20;99.90;;;;;;4100010;29;20671;-90
2023/11/16 04:57:57;;;;;;;9.32;1.38;;;7.30;99.90;;;;;;4099938;29;20304;-90
2023/11/16 04:59:58;;;;;;;0.80;0.57;;;7.30;99.90;;;;;;4116115;28;20639;-90
2023/11/16 05:01:59;;;;;;;2.17;0.73;;;7.20;99.90;;;;;;4099944;29;20194;-90
2023/11/16 05:04:00;;;;;;;1.65;0.65;;;7.20;99.90;;;;;;4116135;28;20193;-90
2023/11/16 05:06:01;;;;;;;2.50;0.73;;;7.20;99.90;;;;;;4100028;29;20746;-90
2023/11/16 05:08:02;;;;;;;5.80;1.08;;;7.20;99.90;;;;;;4115854;28;20265;-90
2023/11/16 05:10:06;;;;;;;3.42;1.08;;;7.20;99.90;;;;;;4116100;28;20551;-90
2023/11/16 05:12:08;;;;;;;4.53;1.23;;;7.30;99.90;;;;;;4100041;29;20309;-90
2023/11/16 05:14:08;;;;;;;2.53;0.82;;;7.40;99.90;;;;;;4115880;28;20667;-90
2023/11/16 05:16:09;;;;;;;2.80;0.77;;;7.40;99.90;;;;;;4100220;29;20231;-90
2023/11/16 05:18:10;;;;;;;3.05;0.88;;;7.50;99.90;;;;;;4099850;29;20207;-89
2023/11/16 05:20:11;;;;;;;4.85;0.65;;;7.50;99.90;;;;;;4115884;28;20184;-89
2023/11/16 05:22:11;;;;;;;6.18;1.35;;;7.50;99.90;;;;;;4115894;28;20190;-91
2023/11/16 05:24:12;;;;;;;2.40;0.95;;;7.60;99.90;;;;;;4100112;29;20265;-90
2023/11/16 05:26:13;;;;;;;6.53;0.63;;;7.60;99.90;;;;;;4100124;28;20183;-90
2023/11/16 05:28:14;;;;;;;2.88;1.00;;;7.60;99.90;;;;;;4099850;28;20637;-91
2023/11/16 05:30:15;;;;;;;6.25;0.85;;;7.70;99.90;;;;;;4115806;28;20186;-90
2023/11/16 05:32:17;;;;;;;3.45;0.93;;;7.60;99.90;;;;;;4099805;29;20245;-90
2023/11/16 05:34:18;;;;;;;2.05;0.73;;;7.70;99.90;;;;;;4099995;29;20179;-90
2023/11/16 05:36:19;;;;;;;5.22;1.63;;;7.70;99.90;;;;;;4099799;28;20273;-90
2023/11/16 05:38:19;;;;;;;2.97;0.88;;;7.80;99.90;;;;;;4099721;29;20319;-91
2023/11/16 05:40:20;;;;;;;17.90;2.65;;;7.90;99.90;;;;;;4099807;29;20199;-89
2023/11/16 05:42:21;;;;;;;2.00;0.50;;;8.00;99.90;;;;;;4099738;28;20187;-90
2023/11/16 05:44:22;;;;;;;6.88;2.10;;;7.90;99.90;;;;;;4099717;28;20226;-91
2023/11/16 05:46:23;;;;;;;1.88;0.52;;;7.90;99.90;;;;;;4115718;28;20221;-90
2023/11/16 05:48:23;;;;;;;5.50;0.47;;;7.90;99.90;;;;;;4099554;28;20187;-90
2023/11/16 05:50:24;;;;;;;4.35;1.13;;;7.90;99.90;;;;;;4102588;29;20189;-90
2023/11/16 05:52:26;;;;;;;1.23;0.80;;;7.80;99.90;;;;;;4102882;29;20198;-90
2023/11/16 05:54:27;;;;;;;3.08;0.77;;;7.70;99.90;;;;;;4102825;29;20190;-90
2023/11/16 05:56:27;;;;;;;2.75;0.77;;;7.70;99.90;;;;;;4118603;28;20190;-90
2023/11/16 05:58:28;;;;;;;13.50;1.58;;;7.90;99.90;;;;;;4102605;29;20280;-90
2023/11/16 06:00:31;;;;;;;1.00;0.82;;;7.80;99.90;;;;;;4103057;29;20214;-90
2023/11/16 06:02:32;;;;;;;3.80;1.63;;;7.80;99.90;;;;;;4118724;28;20174;-91
2023/11/16 06:04:33;;;;;;;3.70;1.30;;;7.80;99.90;;;;;;4102546;29;20221;-91
2023/11/16 06:06:35;;;;;;;2.97;0.95;;;7.80;99.90;;;;;;4102576;28;20275;-90
2023/11/16 06:08:37;;;;;;;3.25;1.15;;;7.60;99.90;;;;;;4118396;28;20210;-91
2023/11/16 06:10:39;;;;;;;3.45;1.35;;;7.50;99.90;;;;;;4102686;29;20620;-91
2023/11/16 06:12:39;;;;;;;6.90;1.23;;;7.50;99.90;;;;;;4102533;29;20632;-90
2023/11/16 06:14:40;;;;;;;1.13;0.70;;;7.80;99.90;;;;;;4102327;28;20246;-90
2023/11/16 06:16:44;;;;;;;9.75;1.13;;;7.80;99.90;;;;;;4102384;29;20217;-90
2023/11/16 06:18:44;;;;;;;3.80;0.82;;;8.00;99.90;;;;;;4102217;29;20207;-91
2023/11/16 06:20:45;;;;;;;1.48;0.50;;;7.80;99.90;;;;;;4118318;28;20182;-89
2023/11/16 06:22:46;;;;;;;3.85;1.73;;;7.70;99.90;;;;;;4102164;29;20218;-90
2023/11/16 06:24:47;;;;;;;5.90;1.13;;;7.60;99.90;;;;;;4102400;29;20254;-91
2023/11/16 06:26:47;;;;;;;6.05;1.30;;;7.50;99.90;;;;;;4118259;28;20186;-89
2023/11/16 06:28:48;;;;;;;3.83;0.88;;;7.50;99.90;;;;;;4102084;29;20734;-90
2023/11/16 06:30:49;;;;;;;2.00;0.88;;;7.50;99.90;;;;;;4102214;29;20302;-91
2023/11/16 06:32:50;;;;;;;2.75;1.17;;;7.40;99.90;;;;;;4101928;29;20274;-90
2023/11/16 06:34:50;;;;;;;1.45;0.80;;;7.40;99.90;;;;;;4118087;28;20301;-90
2023/11/16 06:36:51;;;;;;;6.03;1.52;;;7.30;99.90;;;;;;4102169;29;20250;-89
2023/11/16 06:38:52;;;;;;;3.55;1.33;;;7.40;99.90;;;;;;4118075;28;20230;-90
2023/11/16 06:40:53;;;;;;;1.77;1.02;;;7.40;99.90;;;;;;4102051;29;20734;-90
2023/11/16 06:42:53;;;;;;;6.47;0.75;;;7.40;99.90;;;;;;4102145;29;20283;-90
2023/11/16 06:44:54;;;;;;;8.77;0.93;;;7.40;99.90;;;;;;4102069;28;20258;-90
2023/11/16 06:46:56;;;;;;;8.80;1.63;;;7.40;99.90;;;;;;4102136;28;20191;-91
2023/11/16 06:48:59;;;;;;;2.85;0.68;;;7.40;99.90;;;;;;4102214;28;20199;-90
2023/11/16 06:51:00;;;;;;;3.00;1.20;;;7.50;99.90;;;;;;4101553;29;20273;-90
2023/11/16 06:53:05;;;;;;;16.57;7.80;;;7.50;99.90;;;;;;4101586;29;20187;-90
2023/11/16 06:55:10;;;;;;;8.95;4.38;;;7.60;99.90;;;;;;4101771;29;20191;-90
2023/11/16 06:57:13;;;;;;;8.25;2.38;;;7.60;99.90;;;;;;4101868;28;20265;-91
2023/11/16 06:59:19;;;;;;;12.38;1.95;;;7.70;99.90;;;;;;4101736;28;20206;-90
2023/11/16 07:01:20;;;;;;;6.28;1.35;;;7.70;99.90;;;;;;4101733;29;20746;-90
2023/11/16 07:03:21;;;;;;;2.15;1.30;;;7.70;99.90;;;;;;4117656;28;20316;-89
2023/11/16 07:05:23;;;;;;;3.25;1.10;;;7.80;99.90;;;;;;4101640;28;20189;-91
2023/11/16 07:07:24;;;;;;;2.67;0.93;;;7.80;99.90;;;;;;4101811;28;20254;-91
2023/11/16 07:09:26;;;;;;;5.88;1.20;;;7.80;99.90;;;;;;4101649;28;20202;-90
2023/11/16 07:11:27;;;;;;;4.60;0.63;;;7.90;99.90;;;;;;4117433;28;20266;-90
2023/11/16 07:13:28;;;;;;;8.27;1.30;;;8.00;99.90;;;;;;4101289;29;20179;-90
2023/11/16 07:15:32;;;;;;;1.65;1.05;;;7.90;99.90;;;;;;4101440;29;20178;-90
2023/11/16 07:17:33;;;;;;;5.32;0.60;;;8.00;99.90;;;;;;4101359;29;20206;-90
2023/11/16 07:19:33;;;;;;;1.50;0.57;;;8.10;99.90;;;;;;4101495;29;20213;-90
2023/11/16 07:21:34;;;;;;;3.85;1.10;;;8.20;99.90;;;;;;4101504;29;20223;-90
2023/11/16 07:23:36;;;;;;;4.75;0.93;;;8.20;99.90;;;;;;4101498;29;20648;-91
2023/11/16 07:25:37;;;;;;;4.22;1.15;;;8.10;99.90;;;;;;4101440;29;20191;-91
2023/11/16 07:27:38;;;;;;;3.05;1.08;;;8.10;99.90;;;;;;4117084;28;20198;-90
2023/11/16 07:29:41;;;;;;;1.42;0.55;;;8.00;99.90;;;;;;4117272;28;20159;-92
2023/11/16 07:31:41;;;;;;;7.30;1.05;;;8.10;99.90;;;;;;4101221;28;20288;-90
2023/11/16 07:33:43;;;;;;;2.33;1.25;;;8.10;99.90;;;;;;4117250;28;20261;-90
2023/11/16 07:35:45;;;;;;;2.25;0.82;;;8.10;99.90;;;;;;4101340;29;20183;-91
2023/11/16 07:37:47;;;;;;;8.13;1.02;;;8.30;99.90;;;;;;4101104;29;20175;-90
2023/11/16 07:39:48;;;;;;;12.65;1.35;;;8.30;99.90;;;;;;4100714;28;20198;-90
2023/11/16 07:41:51;;;;;;;2.63;1.10;;;8.30;99.90;;;;;;4101337;29;20206;-90
2023/11/16 07:43:52;;;;;;;5.30;1.35;;;8.30;99.90;;;;;;4101130;28;20190;-90
2023/11/16 07:45:53;;;;;;;3.28;1.00;;;8.30;99.90;;;;;;4101230;28;20560;-90
2023/11/16 07:47:59;;;;;;;6.75;1.63;;;8.30;99.90;;;;;;4116940;28;20190;-92
2023/11/16 07:50:04;;;;;;;9.18;1.77;;;8.30;99.90;;;;;;4116905;28;20178;-90
2023/11/16 07:52:06;;;;;;;2.75;1.38;;;8.30;99.90;;;;;;4101125;29;20222;-90
2023/11/16 07:54:07;;;;;;;7.97;1.42;;;8.20;99.90;;;;;;4100954;29;20182;-90
2023/11/16 07:56:10;;;;;;;4.70;1.20;;;8.00;99.90;;;;;;4117058;28;20273;-90
2023/11/16 07:58:14;;;;;;;10.25;1.10;;;8.00;99.90;;;;;;4100957;29;20213;-90
2023/11/16 08:00:26;;;;;;;4.80;1.10;;;7.90;99.90;;;;;;4100879;29;20301;-90
2023/11/16 08:03:41;;;;;;;2.38;0.95;;;7.80;99.90;;;;;;4100906;29;20175;-91
2023/11/16 08:04:48;;;;;;;7.40;1.02;;;7.90;99.90;;;;;;4116639;28;20206;-91
2023/11/16 08:06:48;;;;;;;13.60;1.75;;;8.00;99.90;;;;;;4100576;29;20175;-90
2023/11/16 08:08:49;;;;;;;12.52;1.38;;;8.20;99.90;;;;;;4100729;29;20545;-90
2023/11/16 08:10:50;;;;;;;8.70;1.23;;;8.70;99.90;;;;;;4100540;28;20221;-90
2023/11/16 08:12:53;;;;;;;2.93;1.50;;;9.30;99.90;;;;;;4099978;28;20186;-89
2023/11/16 08:14:54;;;;;;;3.93;1.40;;;9.60;99.90;;;;;;4100433;28;20176;-89
2023/11/16 08:16:56;;;;;;;6.47;1.60;;;9.70;99.90;;;;;;4100670;29;20701;-90
2023/11/16 08:18:57;;;;;;;6.53;1.00;;;9.50;99.90;;;;;;4100214;28;20222;-90
2023/11/16 08:20:57;;;;;;;6.40;1.87;;;9.60;99.90;;;;;;4100430;28;20175;-89
2023/11/16 08:22:58;;;;;;;5.90;1.90;;;9.60;99.90;;;;;;4100598;28;20171;-88
2023/11/16 08:24:59;;;;;;;3.03;1.27;;;9.30;99.90;;;;;;4100652;28;20179;-90
2023/11/16 08:27:01;;;;;;;7.97;1.27;;;8.90;99.90;;;;;;4100746;29;20182;-89
2023/11/16 08:29:01;;;;;;;7.97;1.80;;;8.90;99.90;;;;;;4116325;28;20202;-89
2023/11/16 08:31:03;;;;;;;2.35;0.85;;;9.00;99.90;;;;;;4116312;28;20248;-90
2023/11/16 08:33:05;;;;;;;6.90;1.58;;;8.90;99.90;;;;;;4116438;28;20281;-89
2023/11/16 08:35:06;;;;;;;6.70;1.55;;;8.90;99.90;;;;;;4100431;29;20187;-89
2023/11/16 08:37:08;;;;;;;2.70;1.15;;;8.90;99.90;;;;;;4116172;28;20634;-89
2023/11/16 08:39:14;;;;;;;4.57;1.40;;;8.90;99.90;;;;;;4100139;29;20202;-90
2023/11/16 08:41:18;;;;;;;5.20;0.98;;;9.00;99.90;;;;;;4100008;28;20190;-89
2023/11/16 08:43:19;;;;;;;4.00;1.02;;;8.80;99.90;;;;;;4100163;29;20636;-89
2023/11/16 08:45:24;;;;;;;3.00;0.75;;;8.60;99.90;;;;;;4100085;29;20278;-90
2023/11/16 08:47:27;;;;;;;4.20;1.25;;;8.30;99.90;;;;;;4100362;28;20182;-90
2023/11/16 08:49:31;;;;;;;5.90;1.55;;;8.20;99.90;;;;;;4100244;29;20206;-90
2023/11/16 08:51:33;;;;;;;9.50;1.77;;;8.20;99.90;;;;;;4100018;28;20214;-89
2023/11/16 08:53:39;;;;;;;5.13;2.28;;;8.40;99.90;;;;;;4100143;29;20187;-89
2023/11/16 08:55:40;;;;;;;4.22;1.48;;;8.30;99.90;;;;;;4100069;29;20662;-90
2023/11/16 08:57:42;;;;;;;8.93;1.48;;;8.20;99.90;;;;;;4099756;29;20190;-90
2023/11/16 08:59:58;;;;;;;3.83;1.60;;;8.10;99.90;;;;;;4099927;28;20659;-89
2023/11/16 09:01:59;;;;;;;2.38;1.38;;;8.30;99.90;;;;;;4100119;29;20194;-90
2023/11/16 09:04:01;;;;;;;3.75;1.95;;;8.20;99.90;;;;;;4100155;29;20647;-90
2023/11/16 09:06:06;;;;;;;2.95;1.50;;;8.20;99.90;;;;;;4100231;29;20202;-90
2023/11/16 09:08:11;;;;;;;3.53;1.83;;;8.20;99.90;;;;;;4100156;29;20241;-91
2023/11/16 09:10:13;;;;;;;6.10;2.38;;;8.30;99.90;;;;;;4099946;29;20210;-90
2023/11/16 09:12:16;;;;;;;4.05;1.42;;;8.30;99.90;;;;;;4099847;29;20264;-89
2023/11/16 09:14:17;;;;;;;7.72;1.17;;;8.60;99.90;;;;;;4099874;28;20210;-89
2023/11/16 09:16:18;;;;;;;6.00;1.27;;;9.30;99.90;;;;;;4099916;29;20179;-90
2023/11/16 09:18:22;;;;;;;3.75;1.65;;;10.00;99.90;;;;;;4115848;28;20285;-89
2023/11/16 09:20:24;;;;;;;2.40;1.00;;;10.30;99.90;;;;;;4100127;29;20175;-90
2023/11/16 09:22:25;;;;;;;2.05;0.93;;;10.30;99.90;;;;;;4100056;28;20191;-90
2023/11/16 09:24:28;;;;;;;6.85;1.27;;;9.70;99.90;;;;;;4103200;29;20225;-89
2023/11/16 09:26:29;;;;;;;11.23;1.65;;;9.20;99.90;;;;;;4103383;29;20222;-90
2023/11/16 09:28:30;;;;;;;11.13;1.90;;;8.90;99.90;;;;;;4102887;29;20206;-90
2023/11/16 09:30:31;;;;;;;4.07;1.75;;;8.70;99.90;;;;;;4119121;28;20217;-90
2023/11/16 09:32:32;;;;;;;5.55;1.15;;;8.60;99.90;;;;;;4103085;29;20282;-90
2023/11/16 09:34:34;;;;;;;4.70;1.35;;;8.70;99.90;;;;;;4118865;28;20218;-90
2023/11/16 09:36:35;;;;;;;2.88;1.58;;;8.90;99.90;;;;;;4103485;29;20690;-90
2023/11/16 09:38:36;;;;;;;8.85;1.73;;;9.10;99.90;;;;;;4102900;28;20207;-90
2023/11/16 09:40:38;;;;;;;2.95;1.40;;;9.20;99.90;;;;;;4102704;28;20195;-90
2023/11/16 09:42:39;;;;;;;6.10;2.03;;;9.30;99.90;;;;;;4102802;28;20191;-90
2023/11/16 09:44:48;;;;;;;9.23;2.15;;;9.30;99.90;;;;;;4102928;29;20179;-90
2023/11/16 09:46:52;;;;;;;3.63;1.40;;;9.20;99.90;;;;;;4103007;28;20651;-91
2023/11/16 09:48:53;;;;;;;6.57;1.80;;;9.30;99.90;;;;;;4102822;28;20230;-90
2023/11/16 09:50:54;;;;;;;12.77;1.33;;;9.20;99.90;;;;;;4102893;29;20243;-91
2023/11/16 09:53:00;;;;;;;4.40;1.45;;;9.30;99.90;;;;;;4102792;29;20238;-90
2023/11/16 09:55:03;;;;;;;2.33;1.10;;;9.40;99.90;;;;;;4102744;29;20254;-90
2023/11/16 09:57:06;;;;;;;5.28;1.90;;;9.50;99.90;;;;;;4118696;28;20178;-90
2023/11/16 09:59:13;;;;;;;4.50;1.60;;;9.60;99.90;;;;;;4102479;28;20675;-90
2023/11/16 10:01:17;;;;;;;1.50;1.20;;;9.60;99.90;;;;;;4102668;29;20179;-90
2023/11/16 10:03:25;;;;;;;8.27;2.42;;;9.80;99.90;;;;;;4102498;29;20226;-90
2023/11/16 10:05:30;;;;;;;3.42;1.45;;;9.70;99.90;;;;;;4102414;28;20174;-90
2023/11/16 10:07:32;;;;;;;2.15;1.50;;;9.70;99.90;;;;;;4102685;28;20648;-90
2023/11/16 10:09:46;;;;;;;6.80;1.58;;;9.70;99.90;;;;;;4102553;28;20353;-88
2023/11/16 10:11:47;;;;;;;5.03;1.85;;;9.60;99.90;;;;;;4102423;29;20214;-88
2023/11/16 10:13:56;;;;;;;4.78;1.52;;;9.50;99.90;;;;;;4118085;28;20213;-92
2023/11/16 10:16:04;;;;;;;8.02;2.10;;;9.40;99.90;;;;;;4102483;29;20194;-88
2023/11/16 10:18:09;;;;;;;2.45;1.33;;;9.30;99.90;;;;;;4102287;28;20213;-88
2023/11/16 10:20:11;;;;;;;2.92;1.58;;;9.20;99.90;;;;;;4118500;28;20229;-88
2023/11/16 10:22:11;;;;;;;3.22;2.05;;;9.00;99.90;;;;;;4102374;29;20186;-90
2023/11/16 10:24:13;;;;;;;4.70;1.35;;;8.80;99.90;;;;;;4102091;29;20182;-90
2023/11/16 10:26:14;;;;;;;5.55;1.60;;;8.90;99.90;;;;;;4118457;28;20216;-89
2023/11/16 10:28:22;;;;;;;9.77;2.03;;;9.00;99.90;;;;;;4102229;29;20207;-90
2023/11/16 10:30:24;;;;;;;8.52;2.58;;;9.20;99.90;;;;;;4118367;28;20182;-90
2023/11/16 10:32:29;;;;;;;3.20;1.40;;;9.20;99.90;;;;;;4102223;29;20226;-90
2023/11/16 10:34:31;;;;;;;6.40;1.63;;;9.00;99.90;;;;;;4101511;28;20207;-90
2023/11/16 10:36:32;;;;;;;4.75;1.70;;;8.90;99.90;;;;;;4102468;28;20266;-91
2023/11/16 10:38:36;;;;;;;9.70;1.75;;;9.30;99.90;;;;;;4118164;28;20209;-90
2023/11/16 10:40:39;;;;;;;5.70;1.42;;;9.40;99.90;;;;;;4102667;29;20261;-89
2023/11/16 10:42:41;;;;;;;7.65;1.58;;;9.80;99.90;;;;;;4102122;29;20654;-89